Time;durP1;ratioP1;P1;durP2;ratioP2;P2;SDS_P1;SDS_P2;PMS_P1;PMS_P2;Temp;Humidity;BMP_temperature;BMP_pressure;BME280_temperature;BME280_humidity;BME280_pressure;Samples;Min_cycle;Max_cycle;Signal;HPM_P1;HPM_P2
2023/10/29 00:00:20;;;;;;;6.60;3.53;;;;;;;9.69;100.00;97270.56;2557300;28;20042;-93
2023/10/29 00:01:56;;;;;;;7.07;3.50;;;;;;;9.39;100.00;97269.22;2568138;28;20061;-93
2023/10/29 00:03:12;;;;;;;10.98;4.18;;;;;;;9.35;100.00;97261.56;2566987;28;20133;-93
2023/10/29 00:04:32;;;;;;;5.57;2.97;;;;;;;9.60;100.00;97267.47;2557106;29;20055;-93
2023/10/29 00:05:48;;;;;;;5.68;3.20;;;;;;;9.21;100.00;97254.31;2562022;28;20358;-92
2023/10/29 00:07:03;;;;;;;6.13;2.95;;;;;;;9.43;100.00;97255.09;2567856;28;20047;-93
2023/10/29 00:08:19;;;;;;;5.88;2.83;;;;;;;9.57;100.00;97257.16;2567653;28;20474;-92
2023/10/29 00:09:35;;;;;;;3.38;2.35;;;;;;;9.64;100.00;97255.13;2556728;28;20047;-92
2023/10/29 00:10:50;;;;;;;5.28;2.83;;;;;;;9.68;100.00;97254.06;2561042;28;20086;-92
2023/10/29 00:12:06;;;;;;;4.35;2.65;;;;;;;9.70;100.00;97264.44;2557019;28;20047;-93
2023/10/29 00:13:25;;;;;;;3.72;2.88;;;;;;;9.55;100.00;97252.88;2561340;28;20137;-91
2023/10/29 00:14:40;;;;;;;4.18;2.45;;;;;;;9.57;100.00;97264.13;2567589;28;20061;-92
2023/10/29 00:15:56;;;;;;;5.30;2.25;;;;;;;9.71;100.00;97259.16;2551993;28;20081;-92
2023/10/29 00:17:11;;;;;;;4.32;2.28;;;;;;;9.68;100.00;97259.28;2548781;29;20055;-92
2023/10/29 00:18:27;;;;;;;7.47;2.70;;;;;;;9.82;100.00;97261.28;2560944;28;20093;-92
2023/10/29 00:19:42;;;;;;;4.82;2.50;;;;;;;9.79;100.00;97260.59;2567734;28;20125;-93
2023/10/29 00:20:58;;;;;;;6.75;2.65;;;;;;;9.77;100.00;97270.22;2567962;28;20109;-93
2023/10/29 00:22:13;;;;;;;4.50;2.15;;;;;;;9.88;100.00;97275.84;2567540;28;20050;-91
2023/10/29 00:23:29;;;;;;;5.35;2.50;;;;;;;9.88;100.00;97275.84;2567474;28;20093;-92
2023/10/29 00:24:45;;;;;;;4.93;2.28;;;;;;;9.49;100.00;97272.28;2567798;28;20039;-92
2023/10/29 00:26:01;;;;;;;4.75;2.25;;;;;;;9.29;100.00;97267.91;2546801;29;20079;-92
2023/10/29 00:27:16;;;;;;;5.57;2.65;;;;;;;9.05;100.00;97275.81;2545013;29;20549;-92
2023/10/29 00:28:32;;;;;;;3.83;2.42;;;;;;;8.97;100.00;97270.09;2560602;28;20306;-92
2023/10/29 00:29:48;;;;;;;5.85;2.45;;;;;;;8.97;100.00;97277.91;2567561;28;20046;-95
2023/10/29 00:31:03;;;;;;;3.78;2.40;;;;;;;9.16;100.00;97273.63;2556908;29;20082;-92
2023/10/29 00:32:19;;;;;;;5.93;2.83;;;;;;;9.29;100.00;97273.13;2548078;29;20055;-93
2023/10/29 00:33:35;;;;;;;6.38;3.17;;;;;;;9.31;100.00;97273.91;2547893;29;20059;-92
2023/10/29 00:34:50;;;;;;;6.80;3.17;;;;;;;9.26;100.00;97270.66;2561304;28;20050;-92
2023/10/29 00:36:06;;;;;;;4.75;2.65;;;;;;;8.96;100.00;97277.06;2567412;28;20054;-92
2023/10/29 00:37:22;;;;;;;5.22;3.00;;;;;;;8.78;100.00;97275.19;2566464;28;20492;-92
2023/10/29 00:38:38;;;;;;;5.72;3.20;;;;;;;8.80;100.00;97283.81;2567039;28;20046;-91
2023/10/29 00:39:53;;;;;;;4.38;2.80;;;;;;;8.72;100.00;97284.09;2567455;28;20058;-91
2023/10/29 00:41:09;;;;;;;3.97;2.78;;;;;;;8.64;100.00;97276.56;2566636;28;20047;-91
2023/10/29 00:42:25;;;;;;;4.68;2.50;;;;;;;8.60;100.00;97288.88;2556670;28;20118;-91
2023/10/29 00:43:40;;;;;;;5.13;2.50;;;;;;;8.63;100.00;97282.69;2560858;28;20058;-91
2023/10/29 00:44:56;;;;;;;4.32;2.38;;;;;;;8.92;100.00;97283.31;2556712;28;20043;-92
2023/10/29 00:46:13;;;;;;;7.05;2.70;;;;;;;8.60;100.00;97275.84;2550686;29;20411;-92
2023/10/29 00:47:29;;;;;;;6.03;2.90;;;;;;;8.52;100.00;97274.44;2561414;28;20078;-92
2023/10/29 00:48:45;;;;;;;6.57;3.22;;;;;;;8.33;100.00;97269.91;2567237;28;20046;-92
2023/10/29 00:50:00;;;;;;;6.32;3.08;;;;;;;8.46;100.00;97270.28;2546572;29;21103;-92
2023/10/29 00:51:17;;;;;;;8.43;3.33;;;;;;;8.68;100.00;97269.47;2544526;29;20051;-92
2023/10/29 00:52:34;;;;;;;6.93;3.03;;;;;;;8.87;100.00;97264.34;2550582;29;20043;-92
2023/10/29 00:53:51;;;;;;;7.15;3.08;;;;;;;9.11;100.00;97267.75;2550722;28;20055;-93
2023/10/29 00:55:08;;;;;;;8.40;2.88;;;;;;;8.77;100.00;97269.09;2562141;28;20047;-91
2023/10/29 00:56:23;;;;;;;6.32;3.05;;;;;;;9.10;100.00;97267.81;2557885;28;20534;-95
2023/10/29 00:57:40;;;;;;;9.82;3.10;;;;;;;9.14;100.00;97270.22;2562650;28;20047;-92
2023/10/29 00:58:56;;;;;;;7.90;3.13;;;;;;;9.11;100.00;97269.50;2566266;28;20109;-91
2023/10/29 01:00:12;;;;;;;7.15;2.78;;;;;;;9.14;100.00;97265.00;2556495;28;20607;-92
2023/10/29 01:01:28;;;;;;;6.68;2.53;;;;;;;8.82;100.00;97258.47;2560907;28;20470;-93
2023/10/29 01:02:44;;;;;;;4.68;2.63;;;;;;;9.00;100.00;97262.94;2556325;28;20055;-93
2023/10/29 01:03:59;;;;;;;4.88;2.50;;;;;;;9.06;100.00;97264.47;2560170;28;20929;-92
2023/10/29 01:05:14;;;;;;;6.07;2.60;;;;;;;9.14;100.00;97265.00;2550896;29;20043;-92
2023/10/29 01:06:38;;;;;;;6.40;2.72;;;;;;;8.97;100.00;97263.09;2558497;28;20050;-93
2023/10/29 01:07:54;;;;;;;4.55;2.50;;;;;;;8.83;100.00;97261.03;2566947;28;20495;-92
2023/10/29 01:09:10;;;;;;;7.38;2.80;;;;;;;8.60;100.00;97261.97;2556765;28;20043;-93
2023/10/29 01:10:26;;;;;;;4.20;2.22;;;;;;;8.65;100.00;97259.16;2550324;29;20680;-92
2023/10/29 01:11:42;;;;;;;6.40;2.40;;;;;;;8.52;100.00;97262.25;2560511;28;20051;-92
2023/10/29 01:12:57;;;;;;;6.80;2.58;;;;;;;8.78;100.00;97267.34;2566465;28;20487;-91
2023/10/29 01:14:13;;;;;;;6.40;2.20;;;;;;;8.78;100.00;97257.75;2556234;28;20051;-93
2023/10/29 01:15:29;;;;;;;4.88;2.60;;;;;;;8.68;100.00;97261.66;2560983;28;20813;-92
2023/10/29 01:16:44;;;;;;;5.82;2.65;;;;;;;8.48;100.00;97258.00;2551435;29;20150;-92
2023/10/29 01:18:00;;;;;;;4.13;2.60;;;;;;;8.51;100.00;97254.47;2550741;29;20043;-92
2023/10/29 01:19:15;;;;;;;3.83;2.55;;;;;;;8.43;100.00;97257.34;2560098;28;20057;-92
2023/10/29 01:20:31;;;;;;;6.65;2.58;;;;;;;8.62;100.00;97257.53;2556190;28;20047;-92
2023/10/29 01:21:47;;;;;;;6.75;2.85;;;;;;;8.51;100.00;97257.91;2549474;28;20051;-92
2023/10/29 01:23:02;;;;;;;4.15;2.38;;;;;;;8.44;100.00;97259.06;2559523;28;20470;-92
2023/10/29 01:24:18;;;;;;;6.65;2.47;;;;;;;8.52;100.00;97256.19;2558071;28;20039;-92
2023/10/29 01:25:33;;;;;;;4.05;2.60;;;;;;;8.64;100.00;97255.69;2562411;28;20047;-92
2023/10/29 01:26:49;;;;;;;7.13;2.10;;;;;;;8.74;100.00;97261.41;2558128;28;20043;-92
2023/10/29 01:28:05;;;;;;;5.05;2.58;;;;;;;8.74;100.00;97257.03;2562877;28;20117;-91
2023/10/29 01:29:20;;;;;;;5.55;2.42;;;;;;;8.76;100.00;97256.97;2558218;29;20054;-91
2023/10/29 01:30:36;;;;;;;7.45;2.55;;;;;;;8.71;100.00;97254.53;2561887;28;20061;-93
2023/10/29 01:31:51;;;;;;;4.60;2.40;;;;;;;8.66;100.00;97260.84;2557853;28;20439;-93
2023/10/29 01:33:07;;;;;;;4.38;2.40;;;;;;;8.64;100.00;97252.22;2552268;29;20812;-94
2023/10/29 01:34:23;;;;;;;5.05;2.53;;;;;;;8.82;100.00;97254.13;2552232;29;20043;-93
2023/10/29 01:35:38;;;;;;;5.32;2.70;;;;;;;8.82;100.00;97253.25;2562685;28;20518;-94
2023/10/29 01:36:54;;;;;;;5.30;2.60;;;;;;;8.79;100.00;97256.84;2568109;28;20058;-94
2023/10/29 01:38:09;;;;;;;4.25;2.33;;;;;;;8.57;100.00;97255.09;2560272;28;20071;-92
2023/10/29 01:39:25;;;;;;;4.43;2.40;;;;;;;8.50;100.00;97255.34;2554757;29;20042;-92
2023/10/29 01:40:40;;;;;;;4.32;2.22;;;;;;;8.52;100.00;97258.78;2552239;29;20137;-93
2023/10/29 01:41:57;;;;;;;3.75;2.20;;;;;;;8.31;100.00;97259.50;2552120;29;20055;-93
2023/10/29 01:43:13;;;;;;;4.97;2.85;;;;;;;8.49;100.00;97259.72;2562249;28;20815;-93
2023/10/29 01:44:28;;;;;;;13.18;5.25;;;;;;;8.62;100.00;97260.97;2556862;28;20044;-93
2023/10/29 01:45:44;;;;;;;11.48;5.10;;;;;;;8.40;100.00;97257.47;2558886;28;20078;-93
2023/10/29 01:47:00;;;;;;;10.30;5.38;;;;;;;8.51;100.00;97255.31;2567956;28;20051;-93
2023/10/29 01:48:16;;;;;;;13.27;5.75;;;;;;;8.59;100.00;97252.41;2568237;28;20054;-93
2023/10/29 01:49:33;;;;;;;12.60;6.10;;;;;;;8.72;100.00;97251.00;2568041;28;20793;-95
2023/10/29 01:50:50;;;;;;;14.77;6.50;;;;;;;8.48;100.00;97238.00;2563673;28;20490;-93
2023/10/29 01:52:06;;;;;;;12.60;6.95;;;;;;;8.65;100.00;97246.97;2565143;28;20086;-92
2023/10/29 01:53:22;;;;;;;14.43;6.10;;;;;;;8.80;100.00;97242.03;2568558;28;20509;-95
2023/10/29 01:54:37;;;;;;;8.32;4.55;;;;;;;8.81;100.00;97246.34;2568670;28;20043;-93
2023/10/29 01:55:53;;;;;;;11.32;3.70;;;;;;;8.75;100.00;97255.28;2568894;28;20050;-93
2023/10/29 01:57:08;;;;;;;5.95;3.30;;;;;;;8.58;100.00;97251.56;2568842;28;20045;-93
2023/10/29 01:58:24;;;;;;;25.70;6.18;;;;;;;8.57;100.00;97255.09;2568487;28;20074;-92
2023/10/29 01:59:39;;;;;;;24.00;6.40;;;;;;;8.66;100.00;97247.78;2558077;28;20119;-93
2023/10/29 02:00:55;;;;;;;13.90;5.93;;;;;;;8.72;100.00;97250.19;2556973;28;20046;-93
2023/10/29 02:02:11;;;;;;;11.07;5.50;;;;;;;8.85;100.00;97247.91;2557937;29;20051;-94
2023/10/29 02:03:26;;;;;;;13.18;6.05;;;;;;;8.93;100.00;97245.00;2562240;28;20050;-92
2023/10/29 02:04:42;;;;;;;12.32;6.80;;;;;;;8.85;100.00;97240.94;2557937;28;20497;-92
2023/10/29 02:05:58;;;;;;;13.57;5.68;;;;;;;8.93;100.00;97240.63;2561905;28;20511;-93
2023/10/29 02:07:14;;;;;;;11.35;5.68;;;;;;;8.91;100.00;97242.47;2568918;28;20083;-92
2023/10/29 02:08:29;;;;;;;11.80;5.90;;;;;;;8.73;100.00;97236.22;2568538;28;20448;-93
2023/10/29 02:09:45;;;;;;;9.65;4.93;;;;;;;8.80;100.00;97236.81;2557959;29;20522;-94
2023/10/29 02:11:01;;;;;;;11.82;4.32;;;;;;;8.80;100.00;97234.22;2562099;28;20058;-93
2023/10/29 02:12:16;;;;;;;6.25;3.50;;;;;;;8.69;100.00;97232.03;2558068;28;20051;-92
2023/10/29 02:13:32;;;;;;;5.25;3.58;;;;;;;8.74;100.00;97230.09;2559483;28;20058;-93
2023/10/29 02:14:47;;;;;;;6.70;3.55;;;;;;;8.81;100.00;97231.56;2559672;28;20114;-92
2023/10/29 02:16:03;;;;;;;6.05;3.60;;;;;;;8.80;100.00;97235.06;2561835;28;20150;-92
2023/10/29 02:17:19;;;;;;;5.80;3.25;;;;;;;8.88;100.00;97240.81;2558204;28;20047;-93
2023/10/29 02:18:35;;;;;;;6.18;3.28;;;;;;;8.87;100.00;97233.91;2556284;29;20047;-92
2023/10/29 02:19:51;;;;;;;6.50;3.65;;;;;;;8.81;100.00;97235.91;2558546;28;20415;-92
2023/10/29 02:21:07;;;;;;;5.13;3.30;;;;;;;8.84;100.00;97236.63;2557436;28;20043;-93
2023/10/29 02:22:24;;;;;;;5.85;3.45;;;;;;;8.74;100.00;97227.47;2549339;29;20051;-93
2023/10/29 02:23:39;;;;;;;5.00;3.10;;;;;;;8.49;100.00;97233.63;2554712;29;20062;-92
2023/10/29 02:24:55;;;;;;;8.02;3.33;;;;;;;8.24;100.00;97229.38;2551727;29;20094;-93
2023/10/29 02:26:11;;;;;;;5.00;3.20;;;;;;;8.56;100.00;97235.13;2561891;28;20590;-94
2023/10/29 02:27:27;;;;;;;7.50;3.47;;;;;;;8.72;100.00;97235.34;2567304;28;20046;-93
2023/10/29 02:28:42;;;;;;;11.35;4.60;;;;;;;8.76;100.00;97230.88;2567888;28;20047;-92
2023/10/29 02:29:58;;;;;;;6.72;3.33;;;;;;;8.72;100.00;97231.91;2568383;28;20102;-92
2023/10/29 02:31:17;;;;;;;7.95;3.40;;;;;;;8.72;100.00;97229.31;2567456;28;20054;-92
2023/10/29 02:32:32;;;;;;;8.20;3.60;;;;;;;8.46;100.00;97233.75;2562763;28;20145;-92
2023/10/29 02:33:48;;;;;;;9.13;3.40;;;;;;;8.44;100.00;97228.59;2557456;29;20051;-93
2023/10/29 02:35:03;;;;;;;5.45;3.28;;;;;;;8.61;100.00;97233.19;2556799;28;20043;-92
2023/10/29 02:36:19;;;;;;;8.05;3.30;;;;;;;8.51;100.00;97226.63;2554805;28;20053;-94
2023/10/29 02:37:35;;;;;;;4.13;2.55;;;;;;;8.26;100.00;97227.56;2551751;29;20055;-92
2023/10/29 02:38:50;;;;;;;4.32;2.65;;;;;;;8.30;100.00;97223.91;2551469;29;20043;-92
2023/10/29 02:40:08;;;;;;;6.15;2.58;;;;;;;8.51;100.00;97224.00;2551531;29;20074;-93
2023/10/29 02:41:24;;;;;;;6.75;3.03;;;;;;;8.71;100.00;97225.00;2562100;28;20057;-92
2023/10/29 02:42:40;;;;;;;4.18;2.55;;;;;;;8.76;100.00;97229.13;2557564;28;20125;-93
2023/10/29 02:43:55;;;;;;;5.53;2.83;;;;;;;8.82;100.00;97222.81;2561797;28;20059;-93
2023/10/29 02:45:11;;;;;;;6.15;2.75;;;;;;;8.81;100.00;97221.13;2557604;28;20500;-93
2023/10/29 02:46:27;;;;;;;4.93;2.92;;;;;;;8.83;100.00;97229.72;2551726;28;20419;-94
2023/10/29 02:47:42;;;;;;;6.93;2.97;;;;;;;8.80;100.00;97229.84;2554898;28;20047;-93
2023/10/29 02:48:58;;;;;;;5.97;2.85;;;;;;;8.83;100.00;97229.72;2547168;29;20071;-92
2023/10/29 02:50:13;;;;;;;7.00;3.67;;;;;;;8.73;100.00;97225.78;2548188;29;20091;-92
2023/10/29 02:51:29;;;;;;;8.60;3.53;;;;;;;8.81;100.00;97231.56;2557687;29;20047;-92
2023/10/29 02:52:45;;;;;;;8.05;4.25;;;;;;;8.84;100.00;97236.63;2559211;28;20486;-93
2023/10/29 02:54:02;;;;;;;8.77;3.55;;;;;;;8.88;100.00;97234.75;2553450;29;20055;-94
2023/10/29 02:55:17;;;;;;;7.20;3.50;;;;;;;8.70;100.00;97234.56;2561587;28;20046;-92
2023/10/29 02:56:35;;;;;;;11.45;5.45;;;;;;;8.77;100.00;97237.78;2557385;28;20039;-93
2023/10/29 02:57:51;;;;;;;15.63;5.78;;;;;;;8.79;100.00;97232.53;2558895;28;20094;-93
2023/10/29 02:59:06;;;;;;;11.35;5.15;;;;;;;8.85;100.00;97238.34;2560091;28;20051;-93
2023/10/29 03:00:23;;;;;;;8.57;5.00;;;;;;;8.93;100.00;97237.16;2559440;28;20050;-93
2023/10/29 03:01:38;;;;;;;9.35;4.50;;;;;;;8.82;100.00;97242.81;2568066;28;20050;-94
2023/10/29 03:02:54;;;;;;;12.07;5.25;;;;;;;8.85;100.00;97246.16;2557101;28;20051;-91
2023/10/29 03:04:10;;;;;;;13.05;5.03;;;;;;;8.97;100.00;97241.38;2561699;28;20050;-92
2023/10/29 03:05:26;;;;;;;11.68;5.32;;;;;;;8.89;100.00;97246.91;2557201;28;20051;-94
2023/10/29 03:06:42;;;;;;;12.98;5.95;;;;;;;8.76;100.00;97236.09;2559482;28;20142;-92
2023/10/29 03:07:59;;;;;;;14.15;5.68;;;;;;;8.79;100.00;97238.56;2551441;28;20043;-93
2023/10/29 03:09:14;;;;;;;26.92;7.45;;;;;;;8.81;100.00;97242.00;2559238;28;20050;-93
2023/10/29 03:10:33;;;;;;;13.48;5.32;;;;;;;8.76;100.00;97233.47;2557709;28;20047;-93
2023/10/29 03:11:49;;;;;;;14.70;6.45;;;;;;;8.62;100.00;97231.44;2562020;28;20062;-92
2023/10/29 03:13:04;;;;;;;17.35;6.93;;;;;;;8.33;100.00;97229.00;2557166;28;20467;-92
2023/10/29 03:14:20;;;;;;;16.48;6.95;;;;;;;8.31;100.00;97233.44;2561335;28;20054;-92
2023/10/29 03:15:35;;;;;;;16.35;6.88;;;;;;;8.52;100.00;97230.97;2567439;28;20054;-92
2023/10/29 03:16:51;;;;;;;17.52;6.60;;;;;;;8.62;100.00;97234.03;2567327;28;20047;-92
2023/10/29 03:18:06;;;;;;;16.80;7.30;;;;;;;8.72;100.00;97231.91;2552528;28;20051;-93
2023/10/29 03:19:22;;;;;;;12.50;5.25;;;;;;;8.52;100.00;97225.75;2557804;28;20491;-94
2023/10/29 03:20:37;;;;;;;11.60;5.35;;;;;;;8.68;100.00;97225.13;2568171;28;20038;-92
2023/10/29 03:21:53;;;;;;;10.38;4.97;;;;;;;8.74;100.00;97222.25;2567434;28;20170;-94
2023/10/29 03:23:09;;;;;;;13.10;6.05;;;;;;;8.64;100.00;97221.78;2567694;28;20462;-94
2023/10/29 03:24:24;;;;;;;9.35;5.00;;;;;;;8.75;100.00;97226.56;2567927;28;20509;-92
2023/10/29 03:25:40;;;;;;;10.20;4.97;;;;;;;8.70;100.00;97228.53;2557492;29;20439;-93
2023/10/29 03:26:56;;;;;;;10.88;4.90;;;;;;;8.74;100.00;97223.13;2558579;28;20098;-93
2023/10/29 03:28:12;;;;;;;12.68;5.75;;;;;;;8.72;100.00;97218.88;2564846;28;20050;-93
2023/10/29 03:29:30;;;;;;;8.80;4.80;;;;;;;8.51;100.00;97221.41;2562476;28;20637;-92
2023/10/29 03:30:45;;;;;;;11.55;5.28;;;;;;;8.48;100.00;97216.28;2564815;28;20090;-93
2023/10/29 03:32:01;;;;;;;13.60;6.32;;;;;;;8.38;100.00;97222.75;2567583;28;20069;-93
2023/10/29 03:33:16;;;;;;;9.52;5.38;;;;;;;8.52;100.00;97215.31;2567680;28;20074;-92
2023/10/29 03:34:32;;;;;;;10.07;5.53;;;;;;;8.53;100.00;97211.78;2556965;28;20062;-92
2023/10/29 03:35:48;;;;;;;9.68;4.78;;;;;;;8.59;100.00;97213.28;2551285;29;20475;-94
2023/10/29 03:37:05;;;;;;;8.88;4.30;;;;;;;8.54;100.00;97220.44;2561220;28;20062;-92
2023/10/29 03:38:20;;;;;;;8.43;4.50;;;;;;;8.41;100.00;97218.28;2568047;28;20042;-92
2023/10/29 03:39:36;;;;;;;9.32;4.28;;;;;;;8.40;100.00;97219.19;2568024;28;20106;-92
2023/10/29 03:40:51;;;;;;;9.73;4.18;;;;;;;8.43;100.00;97220.84;2567912;28;20304;-92
2023/10/29 03:42:07;;;;;;;7.30;4.25;;;;;;;8.31;100.00;97224.75;2557055;28;20517;-92
2023/10/29 03:43:22;;;;;;;6.53;3.67;;;;;;;8.27;100.00;97225.78;2561242;28;20049;-92
2023/10/29 03:44:38;;;;;;;4.65;3.03;;;;;;;8.30;100.00;97225.66;2552085;28;20044;-92
2023/10/29 03:45:54;;;;;;;5.40;3.40;;;;;;;8.44;100.00;97232.97;2556114;28;20098;-94
2023/10/29 03:47:09;;;;;;;7.32;3.45;;;;;;;8.37;100.00;97232.34;2564521;28;20039;-91
2023/10/29 03:48:25;;;;;;;5.80;3.25;;;;;;;8.33;100.00;97231.63;2557186;28;20073;-93
2023/10/29 03:49:44;;;;;;;5.40;3.03;;;;;;;8.31;100.00;97228.22;2561189;28;20078;-92
2023/10/29 03:51:02;;;;;;;8.88;3.40;;;;;;;8.28;100.00;97222.28;2557026;28;20381;-93
2023/10/29 03:52:21;;;;;;;7.55;3.67;;;;;;;7.91;100.00;97224.50;2561775;28;20051;-92
2023/10/29 03:53:37;;;;;;;6.00;3.22;;;;;;;8.00;100.00;97224.19;2567879;28;20046;-92
2023/10/29 03:54:52;;;;;;;5.47;3.22;;;;;;;7.71;100.00;97222.63;2567798;28;20057;-92
2023/10/29 03:56:08;;;;;;;6.18;3.53;;;;;;;7.96;100.00;97221.75;2568153;28;20050;-92
2023/10/29 03:57:24;;;;;;;10.25;3.55;;;;;;;8.03;100.00;97224.06;2567106;28;20049;-92
2023/10/29 03:58:39;;;;;;;5.63;3.35;;;;;;;7.91;100.00;97220.16;2553716;28;20047;-92
2023/10/29 03:59:55;;;;;;;7.30;3.70;;;;;;;8.03;100.00;97223.19;2547995;29;20054;-93
2023/10/29 04:01:14;;;;;;;5.53;3.45;;;;;;;7.88;100.00;97224.63;2561390;28;20042;-92
2023/10/29 04:02:30;;;;;;;3.92;2.75;;;;;;;7.83;100.00;97221.34;2567912;28;20130;-93
2023/10/29 04:03:46;;;;;;;5.95;3.20;;;;;;;7.91;100.00;97224.50;2568177;28;20046;-92
2023/10/29 04:05:01;;;;;;;4.88;3.22;;;;;;;7.94;100.00;97227.00;2567250;28;20045;-94
2023/10/29 04:06:17;;;;;;;6.50;2.92;;;;;;;7.89;100.00;97216.75;2559941;28;20089;-93
2023/10/29 04:07:32;;;;;;;5.45;2.97;;;;;;;7.86;100.00;97219.47;2564806;28;20498;-93
2023/10/29 04:08:48;;;;;;;6.15;3.50;;;;;;;7.87;100.00;97222.94;2567996;28;20109;-91
2023/10/29 04:10:04;;;;;;;5.80;3.05;;;;;;;7.96;100.00;97220.00;2567815;28;20050;-92
2023/10/29 04:11:20;;;;;;;6.40;3.38;;;;;;;7.92;100.00;97221.00;2568227;28;20039;-94
2023/10/29 04:12:36;;;;;;;11.45;4.05;;;;;;;7.95;100.00;97225.25;2567525;28;20513;-93
2023/10/29 04:13:51;;;;;;;8.82;3.63;;;;;;;7.97;100.00;97216.47;2557766;29;20548;-93
2023/10/29 04:15:07;;;;;;;7.68;2.90;;;;;;;7.96;100.00;97217.38;2557189;28;20039;-93
2023/10/29 04:16:23;;;;;;;7.82;3.20;;;;;;;7.85;100.00;97215.16;2561686;28;20094;-93
2023/10/29 04:17:39;;;;;;;9.68;3.45;;;;;;;7.62;100.00;97216.00;2557020;29;20105;-92
2023/10/29 04:18:55;;;;;;;14.48;3.70;;;;;;;7.69;100.00;97216.63;2561251;28;20074;-93
2023/10/29 04:20:10;;;;;;;21.33;4.82;;;;;;;7.92;100.00;97210.56;2546657;29;20051;-92
2023/10/29 04:21:26;;;;;;;9.30;4.15;;;;;;;7.86;100.00;97209.03;2551757;28;20451;-93
2023/10/29 04:22:42;;;;;;;11.20;4.13;;;;;;;7.83;100.00;97213.53;2557181;28;20046;-92
2023/10/29 04:23:58;;;;;;;13.18;4.18;;;;;;;7.77;100.00;97207.63;2541458;29;20441;-93
2023/10/29 04:25:13;;;;;;;23.42;4.43;;;;;;;7.79;100.00;97199.75;2541891;29;20087;-95
2023/10/29 04:26:29;;;;;;;21.85;4.82;;;;;;;7.86;100.00;97205.59;2561186;28;20050;-94
2023/10/29 04:27:45;;;;;;;17.08;5.60;;;;;;;7.90;100.00;97215.00;2567582;28;20051;-93
2023/10/29 04:29:00;;;;;;;26.50;5.22;;;;;;;7.91;100.00;97209.75;2557279;29;20050;-93
2023/10/29 04:30:16;;;;;;;12.30;4.72;;;;;;;7.89;100.00;97214.16;2551284;29;20439;-94
2023/10/29 04:31:32;;;;;;;21.08;5.03;;;;;;;7.80;100.00;97216.22;2550949;29;20051;-93
2023/10/29 04:32:48;;;;;;;15.90;4.55;;;;;;;7.58;100.00;97211.81;2561126;28;20483;-93
2023/10/29 04:34:04;;;;;;;16.13;4.55;;;;;;;7.55;100.00;97215.38;2567557;28;20059;-93
2023/10/29 04:35:19;;;;;;;15.13;4.38;;;;;;;7.60;100.00;97210.84;2556988;29;20051;-92
2023/10/29 04:36:35;;;;;;;13.57;5.28;;;;;;;7.71;100.00;97204.41;2550761;29;20051;-93
2023/10/29 04:37:51;;;;;;;8.75;4.78;;;;;;;7.74;100.00;97201.66;2561205;28;20592;-93
2023/10/29 04:39:07;;;;;;;9.88;4.95;;;;;;;7.74;100.00;97205.13;2556586;29;20043;-93
2023/10/29 04:40:23;;;;;;;10.45;5.20;;;;;;;7.78;100.00;97200.66;2561309;28;20122;-93
2023/10/29 04:41:38;;;;;;;7.57;3.88;;;;;;;7.79;100.00;97202.38;2556632;29;20074;-93
2023/10/29 04:42:54;;;;;;;12.35;4.88;;;;;;;7.78;100.00;97203.28;2550928;29;20051;-93
2023/10/29 04:44:09;;;;;;;10.82;4.82;;;;;;;7.70;100.00;97194.88;2561138;28;20518;-92
2023/10/29 04:45:25;;;;;;;10.40;4.28;;;;;;;7.74;100.00;97196.47;2567758;28;20039;-93
2023/10/29 04:46:41;;;;;;;9.95;4.68;;;;;;;7.76;100.00;97190.28;2556983;28;20039;-93
2023/10/29 04:47:56;;;;;;;8.32;4.18;;;;;;;7.67;100.00;97195.84;2550634;29;20044;-94
2023/10/29 04:49:12;;;;;;;11.20;4.45;;;;;;;7.39;100.00;97191.63;2561114;28;20047;-93
2023/10/29 04:50:30;;;;;;;9.93;4.47;;;;;;;7.49;100.00;97187.78;2567522;28;20102;-94
2023/10/29 04:51:46;;;;;;;11.57;4.78;;;;;;;7.30;100.00;97189.34;2567656;28;20086;-94
2023/10/29 04:53:02;;;;;;;9.93;4.47;;;;;;;7.47;100.00;97189.59;2567610;28;20046;-94
2023/10/29 04:54:17;;;;;;;6.97;3.78;;;;;;;7.50;100.00;97196.47;2567335;28;20057;-94
2023/10/29 04:55:33;;;;;;;17.50;5.13;;;;;;;7.43;100.00;97200.19;2557606;28;20051;-93
2023/10/29 04:56:49;;;;;;;11.32;4.20;;;;;;;7.56;100.00;97195.41;2558608;29;20418;-94
2023/10/29 04:58:04;;;;;;;8.40;3.88;;;;;;;7.55;100.00;97198.91;2546568;29;20056;-93
2023/10/29 04:59:20;;;;;;;7.47;4.47;;;;;;;7.59;100.00;97187.47;2542668;29;20039;-94
2023/10/29 05:00:35;;;;;;;9.82;4.10;;;;;;;7.59;100.00;97188.28;2558624;28;20106;-95
2023/10/29 05:01:51;;;;;;;8.63;4.35;;;;;;;7.63;100.00;97184.69;2557255;29;20150;-94
2023/10/29 05:03:07;;;;;;;17.85;4.25;;;;;;;7.62;100.00;97182.13;2560799;28;20046;-93
2023/10/29 05:04:22;;;;;;;12.05;4.90;;;;;;;7.67;100.00;97176.75;2568578;28;20129;-94
2023/10/29 05:05:38;;;;;;;15.30;5.15;;;;;;;7.68;100.00;97178.47;2564459;28;20087;-95
2023/10/29 05:06:54;;;;;;;12.93;3.88;;;;;;;7.65;100.00;97174.19;2546152;29;20129;-94
2023/10/29 05:08:09;;;;;;;39.50;5.22;;;;;;;7.42;100.00;97177.66;2550826;29;20082;-95
2023/10/29 05:09:34;;;;;;;15.90;3.97;;;;;;;7.34;100.00;97177.91;2563148;28;20046;-94
2023/10/29 05:10:52;;;;;;;44.08;7.05;;;;;;;7.46;100.00;97176.63;2569056;28;20094;-93
2023/10/29 05:12:07;;;;;;;12.07;4.32;;;;;;;7.51;100.00;97171.25;2568797;28;20054;-94
2023/10/29 05:13:23;;;;;;;12.50;3.78;;;;;;;7.49;100.00;97166.94;2568588;28;20090;-94
2023/10/29 05:14:38;;;;;;;17.30;4.32;;;;;;;7.25;100.00;97162.63;2558539;29;20062;-94
2023/10/29 05:16:05;;;;;;;5.97;3.67;;;;;;;7.07;100.00;97155.41;2563346;28;20513;-94
2023/10/29 05:17:28;;;;;;;11.45;3.72;;;;;;;6.84;100.00;97161.38;2569580;28;20470;-94
2023/10/29 05:18:46;;;;;;;9.45;4.20;;;;;;;6.82;100.00;97155.38;2569416;28;20185;-93
2023/10/29 05:20:02;;;;;;;14.90;3.92;;;;;;;6.76;100.00;97159.03;2569381;28;20050;-94
2023/10/29 05:21:20;;;;;;;6.88;3.85;;;;;;;7.00;100.00;97156.50;2553830;29;20047;-93
2023/10/29 05:22:36;;;;;;;14.73;4.75;;;;;;;7.09;100.00;97147.53;2561173;28;20058;-94
2023/10/29 05:23:52;;;;;;;7.22;4.22;;;;;;;6.77;100.00;97149.50;2569167;28;20598;-95
2023/10/29 05:25:08;;;;;;;6.50;4.10;;;;;;;7.07;100.00;97151.94;2569482;28;20042;-94
2023/10/29 05:26:23;;;;;;;11.68;4.18;;;;;;;7.19;100.00;97142.84;2568833;28;20050;-94
2023/10/29 05:27:39;;;;;;;10.85;4.35;;;;;;;7.19;100.00;97143.72;2569060;28;20046;-93
2023/10/29 05:28:54;;;;;;;10.18;4.68;;;;;;;7.16;100.00;97141.22;2568835;28;20053;-93
2023/10/29 05:30:10;;;;;;;8.27;3.50;;;;;;;6.47;100.00;97140.03;2568878;28;20047;-93
2023/10/29 05:31:26;;;;;;;8.43;3.65;;;;;;;6.44;100.00;97134.13;2569541;28;20060;-93
2023/10/29 05:32:41;;;;;;;7.55;3.15;;;;;;;6.62;100.00;97138.69;2569501;28;20042;-93
2023/10/29 05:33:57;;;;;;;4.90;2.97;;;;;;;6.67;100.00;97135.09;2568564;28;20059;-93
2023/10/29 05:35:13;;;;;;;6.00;2.83;;;;;;;6.58;100.00;97136.25;2564507;28;20592;-93
2023/10/29 05:36:29;;;;;;;4.43;2.67;;;;;;;6.55;100.00;97129.38;2553783;29;20091;-93
2023/10/29 05:37:44;;;;;;;5.32;3.10;;;;;;;6.53;100.00;97126.00;2563084;28;20101;-94
2023/10/29 05:39:01;;;;;;;6.65;3.25;;;;;;;6.77;100.00;97126.94;2568744;28;20057;-92
2023/10/29 05:40:17;;;;;;;6.45;3.17;;;;;;;6.96;100.00;97122.84;2571688;28;20050;-92
2023/10/29 05:41:32;;;;;;;5.22;2.80;;;;;;;6.97;100.00;97128.00;2568592;28;20495;-91
2023/10/29 05:42:48;;;;;;;4.95;2.45;;;;;;;7.01;100.00;97123.56;2569213;28;20498;-92
2023/10/29 05:44:04;;;;;;;7.85;2.40;;;;;;;7.07;100.00;97128.53;2568740;28;20055;-92
2023/10/29 05:45:19;;;;;;;5.38;2.55;;;;;;;7.09;100.00;97134.53;2559610;28;20043;-92
2023/10/29 05:46:35;;;;;;;5.50;2.80;;;;;;;6.98;100.00;97132.31;2561552;28;20443;-93
2023/10/29 05:47:50;;;;;;;5.65;3.30;;;;;;;7.02;100.00;97140.88;2558684;29;21016;-94
2023/10/29 05:49:07;;;;;;;8.73;3.00;;;;;;;6.72;100.00;97143.59;2552671;29;20416;-93
2023/10/29 05:50:23;;;;;;;7.63;2.63;;;;;;;6.45;100.00;97143.63;2562544;28;20051;-93
2023/10/29 05:51:38;;;;;;;11.70;2.70;;;;;;;6.78;100.00;97153.78;2568715;28;20118;-93
2023/10/29 05:52:54;;;;;;;14.30;2.78;;;;;;;7.00;100.00;97151.31;2568943;28;20086;-92
2023/10/29 05:54:10;;;;;;;8.85;3.00;;;;;;;7.01;100.00;97152.19;2553094;29;20051;-92
2023/10/29 05:55:25;;;;;;;10.32;2.78;;;;;;;6.98;100.00;97149.66;2557346;28;20046;-93
2023/10/29 05:56:41;;;;;;;7.82;2.83;;;;;;;7.07;100.00;97145.00;2564908;28;20051;-92